This is the latest recevied weather packets stored in our database for station/object DB0LHR-6. If no packets are shown the sender has not sent any weather packets the latest 10 day(s).
| Time | Temp. | Humidity | Pressure | Rain* | Wind** | Luminosity | Snow |
|---|---|---|---|---|---|---|---|
| 1777696275 | 11.67° C | 40% | 1022 hPa | 0 mm | - | - | - |
| 1777695375 | 11.11° C | 40% | 1022 hPa | 0 mm | - | - | - |
| 1777694475 | 11.67° C | 39% | 1022 hPa | 0 mm | - | - | - |
| 1777693575 | 11.67° C | 39% | 1021 hPa | 0 mm | - | - | - |
| 1777692675 | 11.67° C | 39% | 1022 hPa | 0 mm | - | - | - |
| 1777691775 | 11.67° C | 39% | 1022 hPa | 0 mm | - | - | - |
| 1777690875 | 11.67° C | 40% | 1022 hPa | 0 mm | - | - | - |
| 1777689975 | 11.11° C | 40% | 1022 hPa | 0 mm | - | - | - |
| 1777689075 | 11.67° C | 39% | 1022 hPa | 0 mm | - | - | - |
| 1777688175 | 11.67° C | 38% | 1022 hPa | 0 mm | - | - | - |
| 1777687275 | 11.67° C | 38% | 1022 hPa | 0 mm | - | - | - |
| 1777686375 | 12.22° C | 37% | 1022 hPa | 0 mm | - | - | - |
| 1777685475 | 12.22° C | 38% | 1022 hPa | 0 mm | - | - | - |
| 1777684575 | 11.67° C | 39% | 1022 hPa | 0 mm | - | - | - |
| 1777683675 | 12.78° C | 37% | 1021 hPa | 0 mm | - | - | - |
| 1777682775 | 12.78° C | 37% | 1022 hPa | 0 mm | - | - | - |
| 1777681875 | 11.67° C | 40% | 1022 hPa | 0 mm | - | - | - |
| 1777680975 | 12.22° C | 38% | 1022 hPa | 0 mm | - | - | - |
| 1777680075 | 12.22° C | 38% | 1022 hPa | 0 mm | - | - | - |
| 1777679175 | 12.78° C | 37% | 1022 hPa | 0 mm | - | - | - |
| 1777678275 | 14.44° C | 32% | 1022 hPa | 0 mm | - | - | - |
| 1777677375 | 14.44° C | 32% | 1022 hPa | 0 mm | - | - | - |
| 1777676475 | 13.89° C | 33% | 1022 hPa | 0 mm | - | - | - |
| 1777675575 | 13.89° C | 35% | 1022 hPa | 0 mm | - | - | - |
| 1777674675 | 13.89° C | 35% | 1022 hPa | 0 mm | - | - | - |
* Rain latest 24 hours (hover to see other rain measurements)
** Current wind speed in m/s (hover to see current wind gust speed)